Terminal Aerodrome Forecast
Issued by NWS

Home | Current Version | Previous Version | Text Only | Print | Product List | Glossary On
Versions: 1 2 3 4 5 6 7 8 9 10 11 12 13
000
FTUS44 KJAN 010500
TAFGTR
TAF
KGTR 010538Z 0106/0206 16008KT P6SM BKN120
     FM011200 16012KT P6SM -SHRA OVC025
     FM011500 18014KT P6SM -SHRA OVC008
     FM020200 30014G24KT P6SM -RA BKN030=

USA.gov is the U.S. government's official web portal to all federal, state and local government web resources and services.